Time;durP1;ratioP1;P1;durP2;ratioP2;P2;SDS_P1;SDS_P2;PMS_P1;PMS_P2;Temp;Humidity;BMP_temperature;BMP_pressure;BME280_temperature;BME280_humidity;BME280_pressure;Samples;Min_cycle;Max_cycle;Signal;HPM_P1;HPM_P2
2023/02/26 00:01:53;;;;;;;3.00;2.80;;;4.40;73.90;;;;;;5038421;28;20207;-77
2023/02/26 00:04:24;;;;;;;2.95;2.75;;;4.30;73.70;;;;;;5056193;28;20219;-77
2023/02/26 00:06:56;;;;;;;4.43;3.20;;;4.30;74.30;;;;;;5038214;28;20199;-78
2023/02/26 00:09:30;;;;;;;3.88;3.55;;;4.30;71.10;;;;;;5055598;28;20194;-79
2023/02/26 00:12:01;;;;;;;3.17;2.97;;;4.30;71.60;;;;;;5057229;28;20190;-79
2023/02/26 00:14:29;;;;;;;3.42;3.22;;;4.30;71.70;;;;;;5063118;28;20230;-78
2023/02/26 00:17:25;;;;;;;3.10;2.80;;;4.20;68.80;;;;;;5059942;28;20589;-76
2023/02/26 00:19:53;;;;;;;3.15;3.03;;;4.20;69.50;;;;;;5044199;28;20218;-76
2023/02/26 00:22:22;;;;;;;2.85;2.75;;;4.20;66.90;;;;;;5056692;28;20900;-76
2023/02/26 00:24:50;;;;;;;3.20;2.85;;;4.10;65.70;;;;;;5054717;28;20233;-79
2023/02/26 00:27:20;;;;;;;3.15;2.95;;;4.10;64.40;;;;;;5055179;28;21816;-76
2023/02/26 00:29:49;;;;;;;3.17;2.92;;;4.00;62.00;;;;;;5055531;28;20225;-76
2023/02/26 00:32:18;;;;;;;3.40;3.30;;;3.90;66.10;;;;;;5041841;28;20213;-77
2023/02/26 00:34:47;;;;;;;3.78;3.50;;;3.90;62.70;;;;;;5036504;28;20332;-76
2023/02/26 00:37:28;;;;;;;8.70;6.30;;;3.90;64.20;;;;;;5056647;28;20214;-74
2023/02/26 00:40:11;;;;;;;3.40;3.20;;;3.90;63.50;;;;;;5055750;28;20759;-76
2023/02/26 00:42:41;;;;;;;3.28;3.00;;;3.80;61.10;;;;;;5052988;28;20195;-77
2023/02/26 00:45:11;;;;;;;4.97;3.40;;;3.80;61.80;;;;;;5058208;28;20630;-77
2023/02/26 00:47:48;;;;;;;3.25;3.00;;;3.80;58.40;;;;;;5054437;28;20200;-77
2023/02/26 00:50:19;;;;;;;4.80;2.83;;;3.70;59.00;;;;;;5058015;28;21289;-76
2023/02/26 00:52:56;;;;;;;2.55;2.45;;;3.70;60.50;;;;;;5053241;28;20292;-77
2023/02/26 00:55:24;;;;;;;2.70;2.50;;;3.80;60.00;;;;;;5041361;28;20252;-79
2023/02/26 00:57:56;;;;;;;2.83;2.63;;;3.80;59.80;;;;;;5056867;28;20217;-77
2023/02/26 01:00:25;;;;;;;2.70;2.60;;;3.80;59.70;;;;;;5058408;28;20199;-77
2023/02/26 01:02:53;;;;;;;3.25;3.15;;;3.80;59.50;;;;;;5058029;28;20754;-77
2023/02/26 01:05:22;;;;;;;2.85;2.65;;;3.70;58.50;;;;;;5055380;28;20214;-78
2023/02/26 01:07:59;;;;;;;3.10;2.90;;;3.70;58.10;;;;;;5060847;28;20197;-78
2023/02/26 01:10:29;;;;;;;5.53;3.13;;;3.70;58.50;;;;;;5056351;28;20195;-78
2023/02/26 01:12:59;;;;;;;3.08;2.97;;;3.70;58.30;;;;;;5057588;28;20228;-79
2023/02/26 01:15:28;;;;;;;3.75;2.60;;;3.70;57.30;;;;;;5056800;28;20205;-77
2023/02/26 01:18:04;;;;;;;2.90;2.65;;;3.60;55.20;;;;;;5058353;28;20218;-77
2023/02/26 01:20:40;;;;;;;2.92;2.72;;;3.60;55.80;;;;;;5058060;28;20218;-77
2023/02/26 01:23:12;;;;;;;2.70;2.60;;;3.60;56.70;;;;;;5059819;28;20352;-77
2023/02/26 01:25:44;;;;;;;3.25;3.05;;;3.60;56.30;;;;;;5062050;28;20228;-78
2023/02/26 01:28:14;;;;;;;2.60;2.50;;;3.60;56.10;;;;;;5055147;28;20203;-77
2023/02/26 01:30:43;;;;;;;2.90;2.70;;;3.60;56.60;;;;;;5057897;28;20211;-75
2023/02/26 01:33:20;;;;;;;2.50;2.40;;;3.50;55.20;;;;;;5060677;28;20226;-78
2023/02/26 01:35:50;;;;;;;3.00;2.80;;;3.50;54.50;;;;;;5060704;28;20203;-75
2023/02/26 01:38:27;;;;;;;2.70;2.60;;;3.50;54.30;;;;;;5060564;28;20236;-78
2023/02/26 01:41:17;;;;;;;2.80;2.70;;;3.50;55.40;;;;;;5056496;28;20203;-77
2023/02/26 01:43:56;;;;;;;2.85;2.65;;;3.40;54.90;;;;;;5057762;28;20218;-77
2023/02/26 01:46:33;;;;;;;3.35;3.08;;;3.40;52.20;;;;;;5057447;28;20715;-77
2023/02/26 01:49:02;;;;;;;2.72;2.63;;;3.40;53.10;;;;;;5054283;28;20198;-77
2023/02/26 01:51:48;;;;;;;2.65;2.55;;;3.40;54.50;;;;;;5058734;28;20260;-76
2023/02/26 01:54:19;;;;;;;3.53;2.45;;;3.40;53.70;;;;;;5054873;28;20226;-76
2023/02/26 01:56:52;;;;;;;2.60;2.50;;;3.40;52.40;;;;;;5055744;28;20218;-77
2023/02/26 01:59:23;;;;;;;3.10;2.70;;;3.40;54.00;;;;;;5061287;28;20204;-78
2023/02/26 02:01:53;;;;;;;2.53;2.33;;;3.30;50.70;;;;;;5037968;28;20198;-78
2023/02/26 02:04:23;;;;;;;2.90;2.70;;;3.20;51.40;;;;;;5062894;28;20215;-76
2023/02/26 02:06:52;;;;;;;3.67;2.50;;;3.20;51.00;;;;;;5059111;28;21191;-78
2023/02/26 02:09:20;;;;;;;2.25;2.15;;;3.20;52.70;;;;;;5060733;28;20264;-78
2023/02/26 02:12:06;;;;;;;3.03;2.92;;;3.20;51.90;;;;;;5057919;28;20277;-77
2023/02/26 02:14:46;;;;;;;4.18;2.45;;;3.20;51.80;;;;;;5062028;28;20224;-77
2023/02/26 02:17:21;;;;;;;2.30;2.20;;;3.20;51.30;;;;;;5056682;28;20415;-77
2023/02/26 02:20:11;;;;;;;2.47;2.30;;;3.20;50.60;;;;;;5057690;28;20220;-77
2023/02/26 02:22:58;;;;;;;4.65;2.78;;;3.10;50.60;;;;;;5054689;28;20244;-78
2023/02/26 02:25:52;;;;;;;2.42;2.22;;;3.10;51.50;;;;;;5055844;28;20230;-78
2023/02/26 02:28:35;;;;;;;2.60;2.40;;;3.20;50.90;;;;;;5058782;28;20205;-77
2023/02/26 02:31:08;;;;;;;2.45;2.30;;;3.20;51.20;;;;;;5054904;28;20677;-78
2023/02/26 02:33:44;;;;;;;2.53;2.40;;;3.10;49.30;;;;;;5059482;28;20217;-76
2023/02/26 02:36:17;;;;;;;2.85;2.65;;;3.10;49.70;;;;;;5056413;28;20271;-77
2023/02/26 02:38:49;;;;;;;2.15;2.05;;;3.00;48.50;;;;;;5060097;28;20214;-77
2023/02/26 02:41:20;;;;;;;2.50;2.30;;;3.10;48.00;;;;;;5055813;28;20224;-78
2023/02/26 02:43:50;;;;;;;2.25;2.05;;;3.10;48.10;;;;;;5047176;28;20223;-77
2023/02/26 02:46:25;;;;;;;3.25;2.28;;;3.00;46.60;;;;;;5057227;28;20240;-79
2023/02/26 02:48:58;;;;;;;2.85;2.00;;;3.00;47.40;;;;;;5057116;28;20198;-77
2023/02/26 02:51:31;;;;;;;2.85;2.65;;;3.00;47.10;;;;;;5055970;28;20214;-77
2023/02/26 02:54:05;;;;;;;2.00;1.90;;;2.90;45.30;;;;;;5055149;28;20230;-76
2023/02/26 02:56:37;;;;;;;2.60;2.35;;;2.90;46.00;;;;;;5057315;28;20237;-77
2023/02/26 02:59:14;;;;;;;3.60;2.20;;;2.90;45.30;;;;;;5059038;28;20243;-74
2023/02/26 03:01:45;;;;;;;1.80;1.80;;;2.80;44.70;;;;;;5059119;28;20563;-76
2023/02/26 03:04:16;;;;;;;3.03;2.80;;;2.90;46.60;;;;;;5061880;28;20217;-76
2023/02/26 03:06:45;;;;;;;2.30;2.20;;;2.90;46.90;;;;;;5062867;28;20197;-75
2023/02/26 03:09:13;;;;;;;2.50;2.30;;;2.80;46.10;;;;;;5058812;28;20204;-78
2023/02/26 03:11:42;;;;;;;2.40;2.20;;;2.80;45.40;;;;;;5059962;28;20235;-77
2023/02/26 03:14:12;;;;;;;1.90;1.80;;;2.70;44.70;;;;;;5054591;28;20689;-78
2023/02/26 03:17:00;;;;;;;3.15;2.38;;;2.70;46.10;;;;;;5059494;28;20196;-77
2023/02/26 03:19:36;;;;;;;2.30;2.10;;;2.70;45.20;;;;;;5060415;28;20274;-77
2023/02/26 03:22:11;;;;;;;2.67;2.47;;;2.60;45.50;;;;;;5058988;28;20678;-77
2023/02/26 03:24:47;;;;;;;2.30;2.10;;;2.60;46.00;;;;;;5059803;28;20212;-76
2023/02/26 03:27:24;;;;;;;3.58;2.45;;;2.50;45.80;;;;;;5058655;28;20196;-79
2023/02/26 03:29:55;;;;;;;3.65;2.60;;;2.50;45.00;;;;;;5054685;28;20216;-77
2023/02/26 03:32:31;;;;;;;3.60;2.63;;;2.50;45.50;;;;;;5054708;28;20278;-77
2023/02/26 03:35:04;;;;;;;3.20;2.20;;;2.50;46.90;;;;;;5058432;28;20307;-78
2023/02/26 03:37:38;;;;;;;2.25;2.15;;;2.50;47.50;;;;;;5057830;28;20692;-77
2023/02/26 03:40:12;;;;;;;4.30;4.05;;;2.40;45.80;;;;;;5060241;28;20685;-76
2023/02/26 03:42:44;;;;;;;7.07;2.65;;;2.50;48.30;;;;;;5057480;28;20238;-78
2023/02/26 03:45:15;;;;;;;4.40;3.08;;;2.50;49.00;;;;;;5058576;28;20807;-77
2023/02/26 03:47:48;;;;;;;2.70;2.60;;;2.50;47.80;;;;;;5056400;28;20196;-79
2023/02/26 03:50:20;;;;;;;2.10;2.00;;;2.50;48.50;;;;;;5057328;28;20594;-77
2023/02/26 03:52:50;;;;;;;3.58;2.40;;;2.50;48.90;;;;;;5057362;28;20202;-77
2023/02/26 03:55:22;;;;;;;2.75;2.55;;;2.50;48.30;;;;;;5061031;28;20205;-75
2023/02/26 03:57:50;;;;;;;3.17;2.88;;;2.50;48.10;;;;;;5054634;28;20206;-76
2023/02/26 04:00:20;;;;;;;2.70;2.60;;;2.50;50.00;;;;;;5055948;28;20196;-80
2023/02/26 04:02:56;;;;;;;2.90;2.80;;;2.50;49.00;;;;;;5057646;28;20213;-77
2023/02/26 04:05:27;;;;;;;2.75;2.55;;;2.50;49.10;;;;;;5060901;28;20197;-76
2023/02/26 04:07:56;;;;;;;2.40;2.30;;;2.50;49.10;;;;;;5056904;28;20209;-77
2023/02/26 04:10:30;;;;;;;2.25;2.15;;;2.50;49.10;;;;;;5058969;28;20242;-79
2023/02/26 04:12:59;;;;;;;2.28;2.17;;;2.40;49.10;;;;;;5055529;28;20204;-78
2023/02/26 04:15:28;;;;;;;3.75;3.05;;;2.40;49.30;;;;;;5059430;28;20227;-76
2023/02/26 04:17:57;;;;;;;2.40;2.25;;;2.30;49.10;;;;;;5058993;28;20266;-78
2023/02/26 04:20:26;;;;;;;2.90;2.42;;;2.40;49.50;;;;;;5055537;28;20197;-78
2023/02/26 04:22:54;;;;;;;3.00;2.65;;;2.30;49.50;;;;;;5054131;28;21976;-75
2023/02/26 04:25:22;;;;;;;2.35;2.25;;;2.30;49.50;;;;;;5059106;28;20281;-76
2023/02/26 04:27:50;;;;;;;2.72;2.63;;;2.30;51.00;;;;;;5051074;28;20197;-78
2023/02/26 04:30:18;;;;;;;3.10;2.90;;;2.30;50.30;;;;;;5056008;28;20281;-76
2023/02/26 04:32:46;;;;;;;2.67;2.45;;;2.20;49.60;;;;;;5056187;28;20200;-75
2023/02/26 04:35:16;;;;;;;3.35;2.60;;;2.20;50.30;;;;;;5058586;28;20287;-76
2023/02/26 04:37:44;;;;;;;4.20;2.60;;;2.20;51.80;;;;;;5059028;28;20290;-76
2023/02/26 04:40:13;;;;;;;3.55;2.63;;;2.20;52.50;;;;;;5059770;28;20226;-76
2023/02/26 04:42:41;;;;;;;2.78;2.67;;;2.20;51.30;;;;;;5055897;28;20205;-78
2023/02/26 04:45:10;;;;;;;3.05;2.33;;;2.10;51.20;;;;;;5058215;28;20202;-77
2023/02/26 04:47:38;;;;;;;2.92;2.72;;;2.10;51.20;;;;;;5051002;28;20262;-78
2023/02/26 04:50:07;;;;;;;6.93;4.00;;;2.10;51.00;;;;;;5058555;28;20247;-78
2023/02/26 04:52:37;;;;;;;7.88;4.10;;;2.10;51.80;;;;;;5042583;28;20573;-77
2023/02/26 04:55:06;;;;;;;8.70;4.18;;;2.10;52.40;;;;;;5051414;28;20209;-75
2023/02/26 04:57:34;;;;;;;4.53;3.45;;;2.00;51.40;;;;;;5058768;28;20263;-77
2023/02/26 05:00:05;;;;;;;6.63;3.85;;;2.00;51.40;;;;;;5059195;28;20269;-75
2023/02/26 05:02:33;;;;;;;3.17;2.88;;;1.90;51.60;;;;;;5062869;28;20254;-77
2023/02/26 05:05:01;;;;;;;3.35;3.03;;;2.00;51.50;;;;;;5042650;28;20250;-76
2023/02/26 05:07:30;;;;;;;3.13;2.50;;;1.90;51.00;;;;;;5064474;28;20209;-75
2023/02/26 05:09:59;;;;;;;2.40;2.30;;;2.00;51.00;;;;;;5044990;28;20261;-75
2023/02/26 05:12:27;;;;;;;2.50;2.40;;;1.90;51.30;;;;;;5059102;28;20212;-74
2023/02/26 05:14:55;;;;;;;3.00;2.70;;;1.90;52.30;;;;;;5061353;28;20213;-77
2023/02/26 05:17:23;;;;;;;3.10;2.90;;;1.90;52.40;;;;;;5060649;28;20192;-76
2023/02/26 05:19:51;;;;;;;3.13;2.80;;;1.90;52.70;;;;;;5062307;28;20224;-76
2023/02/26 05:22:20;;;;;;;3.03;2.55;;;1.90;54.30;;;;;;5060738;28;20201;-76
2023/02/26 05:24:48;;;;;;;2.85;2.75;;;1.90;55.40;;;;;;5061379;28;20224;-77
2023/02/26 05:27:18;;;;;;;2.95;2.70;;;1.90;56.60;;;;;;5059476;28;20818;-76
2023/02/26 05:29:46;;;;;;;3.40;2.70;;;1.90;55.90;;;;;;5055645;28;20193;-76
2023/02/26 05:32:14;;;;;;;3.47;3.20;;;1.90;56.40;;;;;;5059457;28;20571;-77
2023/02/26 05:34:42;;;;;;;3.35;2.47;;;1.90;56.80;;;;;;5055884;28;20776;-77
2023/02/26 05:37:10;;;;;;;3.40;3.20;;;1.90;56.40;;;;;;5057157;28;20206;-75
2023/02/26 05:39:40;;;;;;;2.58;2.40;;;1.90;55.90;;;;;;5056017;28;20217;-74
2023/02/26 05:42:08;;;;;;;2.88;2.67;;;1.90;72.10;;;;;;5059312;28;20602;-78
2023/02/26 05:44:37;;;;;;;3.42;3.28;;;1.90;72.40;;;;;;5061867;28;20224;-76
2023/02/26 05:47:05;;;;;;;3.80;3.60;;;1.90;55.80;;;;;;5059450;28;20507;-76
2023/02/26 05:49:34;;;;;;;4.03;3.83;;;1.80;55.70;;;;;;5057665;28;20197;-77
2023/02/26 05:52:02;;;;;;;4.18;3.80;;;1.90;55.10;;;;;;5060680;28;20207;-75
2023/02/26 05:54:30;;;;;;;4.32;3.70;;;1.80;55.20;;;;;;5056732;28;20247;-77
2023/02/26 05:56:58;;;;;;;4.32;3.30;;;1.80;56.20;;;;;;5056250;28;20201;-74
2023/02/26 05:59:26;;;;;;;3.42;3.13;;;1.80;55.90;;;;;;5060088;28;20269;-77
2023/02/26 06:01:56;;;;;;;3.45;3.08;;;1.80;55.90;;;;;;5059769;28;20200;-77
2023/02/26 06:04:24;;;;;;;2.92;2.72;;;1.70;56.20;;;;;;5057074;28;20232;-78
2023/02/26 06:06:52;;;;;;;3.75;3.55;;;1.70;54.60;;;;;;5060358;28;20709;-76
2023/02/26 06:09:20;;;;;;;2.53;2.33;;;1.60;56.00;;;;;;5064062;28;20188;-75
2023/02/26 06:11:48;;;;;;;3.15;2.97;;;1.70;55.80;;;;;;5060071;28;20246;-77
2023/02/26 06:14:16;;;;;;;2.72;2.53;;;1.70;56.50;;;;;;5056427;28;20238;-77
2023/02/26 06:16:44;;;;;;;2.72;2.53;;;1.60;56.60;;;;;;5057312;28;20193;-77
2023/02/26 06:19:14;;;;;;;4.53;2.35;;;1.60;56.50;;;;;;5055515;28;20216;-77
2023/02/26 06:21:42;;;;;;;2.55;2.35;;;1.60;57.90;;;;;;5055826;28;20210;-76
2023/02/26 06:24:10;;;;;;;7.20;3.00;;;1.60;58.40;;;;;;5055473;28;20460;-78
2023/02/26 06:26:38;;;;;;;3.30;3.10;;;1.60;58.40;;;;;;5058414;28;20205;-76
2023/02/26 06:29:07;;;;;;;3.03;2.60;;;1.50;57.20;;;;;;5059766;28;20200;-75
2023/02/26 06:31:35;;;;;;;3.03;2.72;;;1.50;58.50;;;;;;5055357;28;20197;-77
2023/02/26 06:34:03;;;;;;;4.63;3.90;;;1.50;58.20;;;;;;5052722;28;20212;-76
2023/02/26 06:36:33;;;;;;;3.45;3.20;;;1.50;60.10;;;;;;5053303;28;20245;-75
2023/02/26 06:39:01;;;;;;;3.50;3.30;;;1.50;61.30;;;;;;5054601;28;21222;-77
2023/02/26 06:41:29;;;;;;;3.47;3.17;;;1.60;63.40;;;;;;5038895;28;20209;-77
2023/02/26 06:43:57;;;;;;;3.58;3.30;;;1.60;62.70;;;;;;5057503;28;20240;-78
2023/02/26 06:46:25;;;;;;;3.20;3.00;;;1.60;63.70;;;;;;5040973;28;20196;-75
2023/02/26 06:48:54;;;;;;;3.63;3.42;;;1.60;65.30;;;;;;5058300;28;20803;-76
2023/02/26 06:51:22;;;;;;;3.35;3.15;;;1.70;66.30;;;;;;5055281;28;20224;-78
2023/02/26 06:53:51;;;;;;;3.80;3.50;;;1.70;65.40;;;;;;5057099;28;20325;-76
2023/02/26 06:56:19;;;;;;;3.28;3.08;;;1.70;64.90;;;;;;5055270;28;20239;-79
2023/02/26 06:58:51;;;;;;;3.67;3.33;;;1.70;65.80;;;;;;5060583;28;20232;-77
2023/02/26 07:01:20;;;;;;;2.85;2.75;;;1.70;67.50;;;;;;5056509;28;20222;-78
2023/02/26 07:03:48;;;;;;;2.97;2.78;;;1.70;66.90;;;;;;5055494;28;20231;-76
2023/02/26 07:06:17;;;;;;;7.68;4.07;;;1.70;66.80;;;;;;5057062;28;20221;-78
2023/02/26 07:08:56;;;;;;;3.80;3.47;;;1.70;66.40;;;;;;5058297;28;20196;-77
2023/02/26 07:11:24;;;;;;;3.85;3.65;;;1.80;69.90;;;;;;5055688;28;20571;-76
2023/02/26 07:13:52;;;;;;;3.33;3.10;;;1.80;67.60;;;;;;5053584;28;20221;-75
2023/02/26 07:16:20;;;;;;;4.03;3.28;;;1.80;67.60;;;;;;5057472;28;20207;-76
2023/02/26 07:18:49;;;;;;;3.40;3.10;;;1.80;68.60;;;;;;5062099;28;20268;-77
2023/02/26 07:21:17;;;;;;;3.50;3.30;;;1.80;68.00;;;;;;5057617;28;20224;-76
2023/02/26 07:23:45;;;;;;;3.13;2.92;;;1.80;69.00;;;;;;5060231;28;20220;-72
2023/02/26 07:26:16;;;;;;;4.80;3.30;;;1.80;69.30;;;;;;5059478;28;20763;-78
2023/02/26 07:28:44;;;;;;;3.33;3.05;;;1.90;89.30;;;;;;5057237;28;20200;-78
2023/02/26 07:31:15;;;;;;;3.42;3.10;;;1.90;69.80;;;;;;5062508;28;20202;-77
2023/02/26 07:33:43;;;;;;;3.60;3.30;;;2.00;71.30;;;;;;5055125;28;20226;-76
2023/02/26 07:36:11;;;;;;;3.95;3.47;;;2.00;75.00;;;;;;5061076;28;20193;-79
2023/02/26 07:38:39;;;;;;;3.80;3.47;;;2.20;76.40;;;;;;5062338;28;20197;-76
2023/02/26 07:41:07;;;;;;;3.70;3.20;;;2.20;74.30;;;;;;5056451;28;20208;-76
2023/02/26 07:43:37;;;;;;;3.35;3.10;;;2.30;92.30;;;;;;5055794;28;20225;-77
2023/02/26 07:46:05;;;;;;;4.63;3.40;;;2.30;76.50;;;;;;5056033;28;20486;-77
2023/02/26 07:48:34;;;;;;;3.38;3.17;;;2.10;90.70;;;;;;5058775;28;20193;-78
2023/02/26 07:51:02;;;;;;;3.25;3.05;;;2.30;78.80;;;;;;5059502;28;20194;-77
2023/02/26 07:53:30;;;;;;;6.25;3.03;;;2.50;80.60;;;;;;5037940;28;20741;-77
2023/02/26 07:55:58;;;;;;;2.70;2.60;;;2.60;79.10;;;;;;5052762;28;20202;-78
2023/02/26 07:58:27;;;;;;;4.13;2.97;;;3.00;84.80;;;;;;5054832;28;20207;-75
2023/02/26 08:00:57;;;;;;;3.13;2.92;;;3.40;86.70;;;;;;5054455;28;20280;-79
2023/02/26 08:03:26;;;;;;;3.00;2.60;;;3.70;84.90;;;;;;5054081;28;20214;-75
2023/02/26 08:05:54;;;;;;;3.20;2.90;;;3.70;77.10;;;;;;5055705;28;20287;-77
2023/02/26 08:08:22;;;;;;;4.95;2.83;;;3.70;75.20;;;;;;5059409;28;20207;-76
2023/02/26 08:10:50;;;;;;;3.28;3.05;;;3.60;69.30;;;;;;5060942;28;20673;-77
2023/02/26 08:13:18;;;;;;;5.45;2.40;;;3.50;65.30;;;;;;5036353;28;20221;-76
2023/02/26 08:15:47;;;;;;;2.53;2.33;;;3.40;69.30;;;;;;5057007;28;20200;-75
2023/02/26 08:18:17;;;;;;;5.25;3.83;;;3.50;68.60;;;;;;5059796;28;20198;-75
2023/02/26 08:20:45;;;;;;;3.08;2.90;;;3.40;67.10;;;;;;5035344;28;20227;-75
2023/02/26 08:23:13;;;;;;;3.63;3.28;;;3.30;64.60;;;;;;5055129;28;20229;-76
2023/02/26 08:25:42;;;;;;;2.72;2.40;;;3.20;65.10;;;;;;5059898;28;20285;-76
2023/02/26 08:28:10;;;;;;;3.25;3.05;;;3.20;66.90;;;;;;5056759;28;20263;-78
2023/02/26 08:30:38;;;;;;;3.53;3.33;;;3.20;74.20;;;;;;5060018;28;20199;-76
2023/02/26 08:33:07;;;;;;;3.85;3.53;;;3.20;81.90;;;;;;5063845;28;21158;-74
2023/02/26 08:35:37;;;;;;;2.70;2.55;;;3.30;88.50;;;;;;5062740;28;20202;-75
2023/02/26 08:38:05;;;;;;;2.83;2.72;;;3.70;92.40;;;;;;5062574;28;20206;-76
2023/02/26 08:40:33;;;;;;;2.70;2.60;;;4.10;91.60;;;;;;5061269;28;20227;-77
2023/02/26 08:43:02;;;;;;;2.78;2.58;;;4.10;82.70;;;;;;5058793;28;20550;-76
2023/02/26 08:45:31;;;;;;;3.10;3.00;;;4.00;79.70;;;;;;5068835;28;20209;-77
2023/02/26 08:47:59;;;;;;;6.75;2.90;;;3.80;78.70;;;;;;5068222;28;20196;-76
2023/02/26 08:50:27;;;;;;;2.50;2.40;;;3.90;78.90;;;;;;5065686;28;20189;-78
2023/02/26 08:52:57;;;;;;;3.10;2.80;;;3.80;70.90;;;;;;5046201;28;20207;-77
2023/02/26 08:55:26;;;;;;;4.53;2.83;;;3.70;71.10;;;;;;5042288;28;20238;-76
2023/02/26 08:57:54;;;;;;;2.65;2.55;;;3.80;74.60;;;;;;5066081;28;20275;-74
2023/02/26 09:00:22;;;;;;;3.75;2.53;;;4.00;73.70;;;;;;5067882;28;20196;-77
2023/02/26 09:02:51;;;;;;;2.85;2.75;;;3.90;81.40;;;;;;5039662;28;20416;-79
2023/02/26 09:05:20;;;;;;;2.42;2.33;;;3.80;79.00;;;;;;5047542;28;20232;-77
2023/02/26 09:07:48;;;;;;;2.90;2.67;;;3.80;78.50;;;;;;5065355;28;20206;-77
2023/02/26 09:10:18;;;;;;;2.85;2.75;;;3.70;76.20;;;;;;5061407;28;20578;-79
2023/02/26 09:12:46;;;;;;;2.83;2.63;;;3.70;76.70;;;;;;5062125;28;20195;-76
2023/02/26 09:15:14;;;;;;;4.60;3.10;;;3.60;75.50;;;;;;5041981;28;20249;-78
2023/02/26 09:17:43;;;;;;;4.03;3.72;;;3.60;75.80;;;;;;5063417;28;20205;-78
2023/02/26 09:20:12;;;;;;;3.30;3.10;;;3.50;72.50;;;;;;5062853;28;20204;-77
2023/02/26 09:22:41;;;;;;;3.33;3.00;;;3.50;72.20;;;;;;5064573;28;20223;-78
2023/02/26 09:25:10;;;;;;;2.55;2.35;;;3.40;68.60;;;;;;5065754;28;20566;-78
2023/02/26 09:27:39;;;;;;;2.33;2.20;;;3.30;68.40;;;;;;5058559;28;20269;-77
2023/02/26 09:30:09;;;;;;;2.75;2.55;;;3.20;72.60;;;;;;5057248;28;20638;-76
2023/02/26 09:32:37;;;;;;;3.10;3.00;;;3.30;72.40;;;;;;5064720;28;20553;-78
2023/02/26 09:35:06;;;;;;;2.50;2.40;;;3.20;75.60;;;;;;5063727;28;20224;-77
2023/02/26 09:37:34;;;;;;;3.45;3.20;;;3.20;75.50;;;;;;5060254;28;20210;-78
2023/02/26 09:40:03;;;;;;;2.50;2.40;;;3.30;92.60;;;;;;5057766;28;20207;-77
2023/02/26 09:42:51;;;;;;;2.30;2.20;;;3.30;77.50;;;;;;5062456;28;20692;-77
2023/02/26 09:45:26;;;;;;;3.25;2.60;;;3.30;76.20;;;;;;5056945;28;20665;-78
2023/02/26 09:47:55;;;;;;;3.05;2.40;;;3.30;74.50;;;;;;5058856;28;20613;-77
2023/02/26 09:50:31;;;;;;;2.30;2.20;;;3.30;74.70;;;;;;5059172;28;20206;-79
2023/02/26 09:53:05;;;;;;;3.13;2.83;;;3.30;75.60;;;;;;5059857;28;20264;-79
2023/02/26 09:55:38;;;;;;;2.45;2.35;;;3.30;79.10;;;;;;5056812;28;20575;-75
2023/02/26 09:58:15;;;;;;;2.30;2.13;;;3.30;77.70;;;;;;5062057;28;20916;-78
2023/02/26 10:00:56;;;;;;;2.45;1.98;;;3.40;80.00;;;;;;5062837;28;20195;-77
2023/02/26 10:03:30;;;;;;;2.10;2.00;;;3.40;80.70;;;;;;5040323;28;20210;-79
2023/02/26 10:06:21;;;;;;;2.30;2.20;;;3.40;81.50;;;;;;5060696;28;20203;-78
2023/02/26 10:09:08;;;;;;;2.50;2.30;;;3.40;82.30;;;;;;5064183;28;20202;-80
2023/02/26 10:11:42;;;;;;;2.55;2.40;;;3.30;79.30;;;;;;5061111;28;20203;-78
2023/02/26 10:14:16;;;;;;;3.65;3.13;;;3.40;82.20;;;;;;5059635;28;20227;-79
2023/02/26 10:16:50;;;;;;;3.92;3.55;;;3.40;81.60;;;;;;5059083;28;20264;-75
2023/02/26 10:19:23;;;;;;;2.47;2.28;;;3.40;84.70;;;;;;5061067;28;20189;-78
2023/02/26 10:21:55;;;;;;;2.75;2.65;;;3.50;86.30;;;;;;5053300;28;20215;-76
2023/02/26 10:24:27;;;;;;;2.80;2.60;;;3.40;83.60;;;;;;5056851;28;20844;-76
2023/02/26 10:27:00;;;;;;;2.80;2.60;;;3.30;82.40;;;;;;5058936;28;20213;-76
2023/02/26 10:29:36;;;;;;;3.47;2.63;;;3.30;81.50;;;;;;5059809;28;20281;-74
2023/02/26 10:32:17;;;;;;;2.58;2.40;;;3.30;82.80;;;;;;5059606;28;20196;-75
2023/02/26 10:34:51;;;;;;;2.80;2.53;;;3.20;84.30;;;;;;5057451;28;20246;-76
2023/02/26 10:37:28;;;;;;;2.47;2.38;;;3.30;85.40;;;;;;5063449;28;20203;-75
2023/02/26 10:40:07;;;;;;;2.80;2.60;;;3.20;82.00;;;;;;5061256;28;20198;-79
2023/02/26 10:42:43;;;;;;;2.88;2.78;;;3.20;85.90;;;;;;5060414;28;20243;-76
2023/02/26 10:45:24;;;;;;;2.65;2.55;;;3.30;89.60;;;;;;5059894;28;20999;-77
2023/02/26 10:48:04;;;;;;;3.77;3.37;;;3.30;90.80;;;;;;5041862;28;20196;-76
2023/02/26 10:50:33;;;;;;;2.75;2.50;;;3.30;91.20;;;;;;5059975;28;20818;-74
2023/02/26 10:53:02;;;;;;;2.90;2.80;;;3.30;89.90;;;;;;5060345;28;20728;-77
2023/02/26 10:55:37;;;;;;;3.28;3.08;;;3.30;90.90;;;;;;5063788;28;20206;-76
2023/02/26 10:58:12;;;;;;;2.72;2.63;;;3.40;92.50;;;;;;5065174;28;20287;-76
2023/02/26 11:00:43;;;;;;;2.85;2.75;;;3.50;92.80;;;;;;5043379;28;20202;-78
2023/02/26 11:03:18;;;;;;;3.33;3.13;;;3.40;93.10;;;;;;5062172;28;20223;-77
2023/02/26 11:05:47;;;;;;;2.95;2.75;;;3.40;92.30;;;;;;5068548;28;20206;-76
2023/02/26 11:08:20;;;;;;;3.33;3.13;;;3.50;93.40;;;;;;5060939;28;20204;-77
2023/02/26 11:10:51;;;;;;;2.70;2.50;;;3.50;93.40;;;;;;5064151;28;20203;-76
2023/02/26 11:13:22;;;;;;;2.90;2.70;;;3.50;93.40;;;;;;5059755;28;21005;-76
2023/02/26 11:15:53;;;;;;;3.33;3.00;;;3.60;93.60;;;;;;5063713;28;20295;-77
2023/02/26 11:18:27;;;;;;;2.80;2.70;;;3.60;93.80;;;;;;5047117;28;20241;-75
2023/02/26 11:20:58;;;;;;;2.97;2.78;;;3.70;93.80;;;;;;5064609;28;20222;-76
2023/02/26 11:23:30;;;;;;;2.83;2.72;;;3.80;93.50;;;;;;5042328;28;20219;-77
2023/02/26 11:26:04;;;;;;;2.88;2.78;;;3.80;92.90;;;;;;5063069;28;20251;-77
2023/02/26 11:28:35;;;;;;;2.92;2.83;;;3.80;90.30;;;;;;5057628;28;20434;-78
2023/02/26 11:31:09;;;;;;;2.85;2.70;;;3.70;90.00;;;;;;5062506;28;20192;-76
2023/02/26 11:33:40;;;;;;;2.80;2.60;;;3.80;90.90;;;;;;5065229;28;20213;-77
2023/02/26 11:36:11;;;;;;;2.58;2.47;;;3.80;90.00;;;;;;5040644;28;20233;-74
2023/02/26 11:38:39;;;;;;;2.80;2.65;;;3.80;90.00;;;;;;5059764;28;20251;-73
2023/02/26 11:41:08;;;;;;;3.03;2.80;;;3.80;89.00;;;;;;5041163;28;20206;-76
2023/02/26 11:43:41;;;;;;;3.20;2.90;;;3.80;89.30;;;;;;5053386;28;20225;-75
2023/02/26 11:46:14;;;;;;;2.63;2.53;;;3.90;87.80;;;;;;5053917;28;20865;-76
2023/02/26 11:48:46;;;;;;;2.20;2.10;;;3.80;86.70;;;;;;5055081;28;20206;-75
2023/02/26 11:51:16;;;;;;;2.58;2.47;;;3.80;86.30;;;;;;5054477;28;22193;-77
2023/02/26 11:53:50;;;;;;;2.30;2.20;;;3.70;82.20;;;;;;5054227;28;20233;-76
2023/02/26 11:56:27;;;;;;;2.13;2.03;;;3.70;84.20;;;;;;5052561;28;20203;-74
2023/02/26 11:58:55;;;;;;;2.75;2.55;;;3.80;85.70;;;;;;5053917;28;20241;-76
2023/02/26 12:01:28;;;;;;;2.40;2.30;;;3.80;84.80;;;;;;5055219;28;20268;-76
2023/02/26 12:03:59;;;;;;;2.97;2.78;;;3.80;87.10;;;;;;5057526;28;20727;-74
2023/02/26 12:06:27;;;;;;;2.28;2.17;;;3.80;87.80;;;;;;5049292;28;20447;-79
2023/02/26 12:08:56;;;;;;;2.47;2.28;;;3.80;95.60;;;;;;5062053;28;20199;-78
2023/02/26 12:11:50;;;;;;;2.05;1.95;;;3.80;80.30;;;;;;5053901;28;20211;-75
2023/02/26 12:14:43;;;;;;;2.20;2.05;;;3.80;80.70;;;;;;5053106;28;20239;-77
2023/02/26 12:17:30;;;;;;;2.50;2.40;;;3.90;77.00;;;;;;5051264;28;20252;-77
2023/02/26 12:20:14;;;;;;;2.00;1.90;;;3.80;76.30;;;;;;5051794;28;20207;-77
2023/02/26 12:22:54;;;;;;;4.07;2.35;;;3.90;77.20;;;;;;5054875;28;20225;-76
2023/02/26 12:25:32;;;;;;;2.00;1.90;;;3.90;74.30;;;;;;5056492;28;20342;-76
2023/02/26 12:28:13;;;;;;;2.40;2.30;;;3.90;73.30;;;;;;5053635;28;20699;-80
2023/02/26 12:30:56;;;;;;;2.80;2.60;;;3.90;74.70;;;;;;5055032;28;21864;-75
2023/02/26 12:33:40;;;;;;;2.28;2.17;;;3.80;75.30;;;;;;5055593;28;20214;-75
2023/02/26 12:36:26;;;;;;;2.45;2.25;;;3.80;86.80;;;;;;5054875;28;20226;-76
2023/02/26 12:39:11;;;;;;;2.15;2.05;;;3.80;77.20;;;;;;5056207;28;22008;-76
2023/02/26 12:42:01;;;;;;;1.98;1.88;;;3.90;77.90;;;;;;5057480;28;20201;-75
2023/02/26 12:44:59;;;;;;;3.55;3.35;;;3.80;76.80;;;;;;5052887;28;20225;-75
2023/02/26 12:47:43;;;;;;;2.65;2.55;;;3.90;77.90;;;;;;5051882;28;20227;-75
2023/02/26 12:50:28;;;;;;;2.67;2.47;;;3.90;77.20;;;;;;5054533;28;21767;-75
2023/02/26 12:53:30;;;;;;;2.35;2.20;;;3.90;77.80;;;;;;5056971;28;20190;-76
2023/02/26 12:56:23;;;;;;;4.68;2.40;;;3.90;76.20;;;;;;5057262;28;20461;-77
2023/02/26 12:59:03;;;;;;;2.20;2.10;;;3.90;77.30;;;;;;5057018;28;20206;-76
2023/02/26 13:02:04;;;;;;;2.03;2.03;;;3.80;76.50;;;;;;5058485;28;21028;-75
2023/02/26 13:05:05;;;;;;;3.85;3.38;;;3.90;78.50;;;;;;5029831;28;20242;-75
2023/02/26 13:07:52;;;;;;;2.55;2.45;;;3.90;78.60;;;;;;5060010;28;20201;-74
2023/02/26 13:10:28;;;;;;;2.13;2.03;;;3.90;78.10;;;;;;5059449;28;20203;-75
2023/02/26 13:13:14;;;;;;;2.28;2.17;;;4.00;77.70;;;;;;5061044;28;20989;-74
2023/02/26 13:16:01;;;;;;;2.50;2.40;;;4.00;78.40;;;;;;5060133;28;20208;-76
2023/02/26 13:18:39;;;;;;;2.47;2.38;;;4.00;77.10;;;;;;5064922;28;20281;-76
2023/02/26 13:21:13;;;;;;;2.30;2.20;;;4.00;76.60;;;;;;5060508;28;20212;-79
2023/02/26 13:23:49;;;;;;;2.30;2.20;;;4.10;76.20;;;;;;5063112;28;20620;-78
2023/02/26 13:26:19;;;;;;;2.50;2.30;;;4.10;77.10;;;;;;5057382;28;20790;-78